createdAt,value
2018-12-23T00:02:34.019Z,91.56
2018-12-23T00:05:37.526Z,92.21
2018-12-23T00:08:41.022Z,93.27
2018-12-23T00:11:44.620Z,93.57
2018-12-23T00:14:48.131Z,94.26
2018-12-23T00:17:51.635Z,94.62
2018-12-23T00:20:55.105Z,95.67
2018-12-23T00:23:58.634Z,97.03
2018-12-23T00:27:02.214Z,98.51
2018-12-23T00:30:07.125Z,98.70
2018-12-23T00:33:13.553Z,99.43
2018-12-23T00:36:17.844Z,100.00
2018-12-23T00:39:26.306Z,100.00
2018-12-23T00:42:30.337Z,100.00
2018-12-23T00:45:35.312Z,100.00
2018-12-23T00:48:39.899Z,100.00
2018-12-23T00:51:44.499Z,100.00
2018-12-23T00:54:48.319Z,100.00
2018-12-23T00:57:55.750Z,100.00
2018-12-23T01:01:06.352Z,99.66
2018-12-23T01:04:10.483Z,98.98
2018-12-23T01:07:17.792Z,98.74
2018-12-23T01:10:21.480Z,98.63
2018-12-23T01:13:25.168Z,98.50
2018-12-23T01:16:28.529Z,98.83
2018-12-23T01:19:32.691Z,98.77
2018-12-23T01:22:37.196Z,98.44
2018-12-23T01:25:44.912Z,98.98
2018-12-23T01:28:51.196Z,98.93
2018-12-23T01:31:54.809Z,98.73
2018-12-23T01:34:59.396Z,97.49
2018-12-23T01:38:03.873Z,96.40
2018-12-23T01:41:08.176Z,95.02
2018-12-23T01:44:11.987Z,94.80
2018-12-23T01:47:16.521Z,94.38
2018-12-23T01:50:20.931Z,94.46
2018-12-23T01:53:25.045Z,94.85
2018-12-23T01:56:28.666Z,94.85
2018-12-23T01:59:32.210Z,94.83
2018-12-23T02:02:37.568Z,94.46
2018-12-23T02:05:46.097Z,94.89
2018-12-23T02:08:49.610Z,94.25
2018-12-23T02:11:53.240Z,94.77
2018-12-23T02:14:56.847Z,95.09
2018-12-23T02:18:01.172Z,95.63
2018-12-23T02:21:04.773Z,94.96
2018-12-23T02:24:08.997Z,95.43
2018-12-23T02:27:14.404Z,95.38
2018-12-23T02:30:19.080Z,95.54
2018-12-23T02:33:22.737Z,95.40
2018-12-23T02:36:26.337Z,95.74
2018-12-23T02:39:30.004Z,96.15
2018-12-23T02:42:33.643Z,96.15
2018-12-23T02:45:37.206Z,96.17
2018-12-23T02:48:40.810Z,96.84
2018-12-23T02:51:47.935Z,97.48
2018-12-23T02:54:51.437Z,97.42
2018-12-23T02:57:55.005Z,97.67
2018-12-23T03:00:59.630Z,98.08
2018-12-23T03:04:03.244Z,98.58
2018-12-23T03:07:07.232Z,99.11
2018-12-23T03:10:10.863Z,99.12
2018-12-23T03:13:14.467Z,99.42
2018-12-23T03:16:18.101Z,99.22
2018-12-23T03:19:21.677Z,99.84
2018-12-23T03:22:27.394Z,100.00
2018-12-23T03:25:30.971Z,100.00
2018-12-23T03:28:34.618Z,100.00
2018-12-23T03:31:38.260Z,100.00
2018-12-23T03:34:42.877Z,100.00
2018-12-23T03:37:47.442Z,100.00
2018-12-23T03:40:51.063Z,100.00
2018-12-23T03:43:54.679Z,100.00
2018-12-23T03:46:58.337Z,100.00
2018-12-23T03:50:01.864Z,100.00
2018-12-23T03:53:07.417Z,100.00
2018-12-23T03:56:11.075Z,100.00
2018-12-23T03:59:14.693Z,100.00
2018-12-23T04:02:18.270Z,100.00
2018-12-23T04:05:21.805Z,100.00
2018-12-23T04:08:25.406Z,100.00
2018-12-23T04:11:29.012Z,100.00
2018-12-23T04:14:33.602Z,100.00
2018-12-23T04:17:37.336Z,100.00
2018-12-23T04:20:40.955Z,100.00
2018-12-23T04:23:44.560Z,100.00
2018-12-23T04:26:48.167Z,100.00
2018-12-23T04:29:51.769Z,100.00
2018-12-23T04:32:55.394Z,100.00
2018-12-23T04:35:58.981Z,100.00
2018-12-23T04:39:02.675Z,100.00
2018-12-23T04:42:06.311Z,100.00
2018-12-23T04:45:09.872Z,100.00
2018-12-23T04:48:18.010Z,100.00
2018-12-23T04:51:21.617Z,100.00
2018-12-23T04:54:25.241Z,100.00
2018-12-23T04:57:28.845Z,100.00
2018-12-23T05:00:32.388Z,100.00
2018-12-23T05:03:42.627Z,100.00
2018-12-23T05:06:43.476Z,100.00
2018-12-23T05:09:43.455Z,100.00
2018-12-23T05:12:47.169Z,100.00
2018-12-23T05:15:50.770Z,100.00
2018-12-23T05:18:54.516Z,100.00
2018-12-23T05:21:58.227Z,100.00
2018-12-23T05:25:01.749Z,100.00
2018-12-23T05:28:05.301Z,100.00
2018-12-23T05:31:08.842Z,100.00
2018-12-23T05:34:12.276Z,100.00
2018-12-23T05:37:15.850Z,100.00
2018-12-23T05:40:19.548Z,100.00
2018-12-23T05:43:23.090Z,100.00
2018-12-23T05:46:26.788Z,100.00
2018-12-23T05:49:30.400Z,100.00
2018-12-23T05:52:34.022Z,100.00
2018-12-23T05:55:36.354Z,100.00
2018-12-23T05:58:40.221Z,100.00
2018-12-23T06:01:43.866Z,100.00
2018-12-23T06:04:47.410Z,99.87
2018-12-23T06:07:51.280Z,100.00
2018-12-23T06:10:54.825Z,100.00
2018-12-23T06:13:58.457Z,100.00
2018-12-23T06:17:02.051Z,100.00
2018-12-23T06:20:05.677Z,100.00
2018-12-23T06:23:09.246Z,99.97
2018-12-23T06:26:12.873Z,100.00
2018-12-23T06:29:16.380Z,100.00
2018-12-23T06:32:19.963Z,100.00
2018-12-23T06:35:23.693Z,100.00
2018-12-23T06:38:27.330Z,100.00
2018-12-23T06:41:30.995Z,100.00
2018-12-23T06:44:34.511Z,100.00
2018-12-23T06:47:38.102Z,100.00
2018-12-23T06:50:41.741Z,99.92
2018-12-23T06:53:45.376Z,100.00
2018-12-23T06:56:48.930Z,100.00
2018-12-23T06:59:52.498Z,100.00
2018-12-23T07:02:56.122Z,100.00
2018-12-23T07:05:59.751Z,100.00
2018-12-23T07:09:04.007Z,100.00
2018-12-23T07:12:07.473Z,100.00
2018-12-23T07:15:11.076Z,100.00
2018-12-23T07:18:14.659Z,100.00
2018-12-23T07:21:18.287Z,100.00
2018-12-23T07:24:21.791Z,100.00
2018-12-23T07:27:25.387Z,100.00
2018-12-23T07:30:29.004Z,100.00
2018-12-23T07:33:33.197Z,100.00
2018-12-23T07:36:36.885Z,100.00
2018-12-23T07:39:40.436Z,100.00
2018-12-23T07:42:43.966Z,100.00
2018-12-23T07:45:48.248Z,100.00
2018-12-23T07:48:51.851Z,100.00
2018-12-23T07:51:55.433Z,100.00
2018-12-23T07:54:58.975Z,100.00
2018-12-23T07:58:02.556Z,100.00
2018-12-23T08:01:06.069Z,100.00
2018-12-23T08:04:10.058Z,100.00
2018-12-23T08:07:13.680Z,100.00
2018-12-23T08:10:17.260Z,100.00
2018-12-23T08:13:20.795Z,100.00
2018-12-23T08:16:24.366Z,100.00
2018-12-23T08:19:27.987Z,100.00
2018-12-23T08:22:31.580Z,100.00
2018-12-23T08:25:35.786Z,100.00
2018-12-23T08:28:38.879Z,100.00
2018-12-23T08:31:42.474Z,100.00
2018-12-23T08:34:45.918Z,100.00
2018-12-23T08:37:49.531Z,100.00
2018-12-23T08:40:53.132Z,100.00
2018-12-23T08:43:56.737Z,100.00
2018-12-23T08:47:00.460Z,100.00
2018-12-23T08:50:04.537Z,100.00
2018-12-23T08:53:10.310Z,100.00
2018-12-23T08:56:13.993Z,100.00
2018-12-23T08:59:17.600Z,100.00
2018-12-23T09:02:21.019Z,100.00
2018-12-23T09:05:24.734Z,100.00
2018-12-23T09:08:28.384Z,100.00
2018-12-23T09:11:31.813Z,100.00
2018-12-23T09:14:35.333Z,99.82
2018-12-23T09:17:39.029Z,99.73
2018-12-23T09:20:42.678Z,99.33
2018-12-23T09:23:46.289Z,98.23
2018-12-23T09:26:50.890Z,98.23
2018-12-23T09:29:54.449Z,97.97
2018-12-23T09:32:57.924Z,98.12
2018-12-23T09:36:01.541Z,97.12
2018-12-23T09:39:06.725Z,97.04
2018-12-23T09:42:11.106Z,97.35
2018-12-23T09:45:14.602Z,96.33
2018-12-23T09:48:18.055Z,95.94
2018-12-23T09:51:21.583Z,95.79
2018-12-23T09:54:25.158Z,95.41
2018-12-23T09:57:28.644Z,95.11
2018-12-23T10:00:32.132Z,94.03
2018-12-23T10:03:35.848Z,94.12
2018-12-23T10:06:40.402Z,94.03
2018-12-23T10:09:43.813Z,93.50
2018-12-23T10:12:47.285Z,93.20
2018-12-23T10:15:51.005Z,93.35
2018-12-23T10:18:55.586Z,93.05
2018-12-23T10:21:59.022Z,93.08
2018-12-23T10:25:02.461Z,92.44
2018-12-23T10:28:05.982Z,92.23
2018-12-23T10:31:09.532Z,91.24
2018-12-23T10:34:13.058Z,90.74
2018-12-23T10:37:16.583Z,89.70
2018-12-23T10:40:20.145Z,90.10
2018-12-23T10:43:23.640Z,89.50
2018-12-23T10:46:27.138Z,89.56
2018-12-23T10:49:30.686Z,89.62
2018-12-23T10:52:34.149Z,89.57
2018-12-23T10:55:37.631Z,89.28
2018-12-23T10:58:41.148Z,88.89
2018-12-23T11:01:44.673Z,89.45
2018-12-23T11:04:48.067Z,89.36
2018-12-23T11:07:51.565Z,88.65
2018-12-23T11:10:55.075Z,88.53
2018-12-23T11:13:58.496Z,88.40
2018-12-23T11:17:01.958Z,88.51
2018-12-23T11:20:06.701Z,88.21
2018-12-23T11:23:10.196Z,87.95
2018-12-23T11:26:13.701Z,88.26
2018-12-23T11:29:17.114Z,89.19
2018-12-23T11:32:20.600Z,89.27
2018-12-23T11:35:23.996Z,90.18
2018-12-23T11:38:35.289Z,90.43
2018-12-23T11:41:30.888Z,90.06
2018-12-23T11:44:34.361Z,89.36
2018-12-23T11:47:37.990Z,90.20
2018-12-23T11:50:41.652Z,90.32
2018-12-23T11:53:45.112Z,90.80
2018-12-23T11:56:48.514Z,90.14
2018-12-23T11:59:52.092Z,91.93
2018-12-23T12:02:55.752Z,94.32
2018-12-23T12:05:59.178Z,95.73
2018-12-23T12:09:06.892Z,96.61
2018-12-23T12:12:06.540Z,96.75
2018-12-23T12:15:09.930Z,97.67
2018-12-23T12:18:13.447Z,97.28
2018-12-23T12:21:17.016Z,97.97
2018-12-23T12:24:20.470Z,99.12
2018-12-23T12:27:24.154Z,99.30
2018-12-23T12:30:27.955Z,99.35
2018-12-23T12:33:31.600Z,100.00
2018-12-23T12:36:35.070Z,100.00
2018-12-23T12:39:39.580Z,100.00
2018-12-23T12:42:43.223Z,100.00
2018-12-23T12:45:46.704Z,100.00
2018-12-23T12:48:50.294Z,100.00
2018-12-23T12:51:53.927Z,100.00
2018-12-23T12:54:57.441Z,100.00
2018-12-23T12:58:01.013Z,100.00
2018-12-23T13:01:04.547Z,100.00
2018-12-23T13:04:08.053Z,100.00
2018-12-23T13:07:11.611Z,100.00
2018-12-23T13:10:20.198Z,100.00
2018-12-23T13:13:36.286Z,100.00
2018-12-23T13:16:39.830Z,100.00
2018-12-23T13:19:43.381Z,100.00
2018-12-23T13:22:46.917Z,100.00
2018-12-23T13:25:50.503Z,100.00
2018-12-23T13:28:53.992Z,100.00
2018-12-23T13:31:57.601Z,100.00
2018-12-23T13:35:02.306Z,100.00
2018-12-23T13:38:05.850Z,100.00
2018-12-23T13:41:23.867Z,100.00
2018-12-23T13:44:39.327Z,100.00
2018-12-23T13:48:08.927Z,100.00
2018-12-23T13:51:42.447Z,100.00
2018-12-23T13:54:57.386Z,100.00
2018-12-23T13:59:11.729Z,100.00
2018-12-23T14:02:31.989Z,100.00
2018-12-23T14:05:51.238Z,100.00
2018-12-23T14:10:09.626Z,100.00
2018-12-23T14:13:13.346Z,100.00
2018-12-23T14:16:16.919Z,100.00
2018-12-23T14:19:20.511Z,100.00
2018-12-23T14:22:24.076Z,100.00
2018-12-23T14:25:27.735Z,100.00
2018-12-23T14:28:31.216Z,100.00
2018-12-23T14:31:34.776Z,100.00
2018-12-23T14:34:41.968Z,100.00
2018-12-23T14:37:49.759Z,100.00
2018-12-23T14:40:59.638Z,100.00
2018-12-23T14:44:07.148Z,100.00
2018-12-23T14:47:13.928Z,100.00
2018-12-23T14:50:20.635Z,100.00
2018-12-23T14:53:28.401Z,100.00
2018-12-23T14:56:35.269Z,100.00
2018-12-23T14:59:42.645Z,100.00
2018-12-23T15:02:49.938Z,100.00
2018-12-23T15:05:58.761Z,100.00
2018-12-23T15:09:08.674Z,100.00
2018-12-23T15:12:18.535Z,100.00
2018-12-23T15:15:23.356Z,100.00
2018-12-23T15:18:26.809Z,100.00
2018-12-23T15:21:30.396Z,100.00
2018-12-23T15:24:33.912Z,100.00
2018-12-23T15:27:37.515Z,100.00
2018-12-23T15:30:41.119Z,100.00
2018-12-23T15:33:44.615Z,100.00
2018-12-23T15:36:48.129Z,100.00
2018-12-23T15:39:51.626Z,100.00
2018-12-23T15:42:55.240Z,100.00
2018-12-23T15:45:58.843Z,100.00
2018-12-23T15:49:02.418Z,100.00
2018-12-23T15:52:05.846Z,100.00
2018-12-23T15:55:09.443Z,100.00
2018-12-23T15:58:12.825Z,100.00
2018-12-23T16:01:16.358Z,100.00
2018-12-23T16:04:20.145Z,100.00
2018-12-23T16:07:23.670Z,100.00
2018-12-23T16:10:27.325Z,100.00
2018-12-23T16:13:30.770Z,100.00
2018-12-23T16:16:34.259Z,100.00
2018-12-23T16:19:38.255Z,100.00
2018-12-23T16:22:41.778Z,100.00
2018-12-23T16:25:45.192Z,100.00
2018-12-23T16:28:48.913Z,100.00
2018-12-23T16:31:52.483Z,100.00
2018-12-23T16:34:56.010Z,100.00
2018-12-23T16:37:59.493Z,100.00
2018-12-23T16:41:03.002Z,100.00
2018-12-23T16:44:06.471Z,100.00
2018-12-23T16:47:09.928Z,100.00
2018-12-23T16:50:13.498Z,100.00
2018-12-23T16:53:17.065Z,100.00
2018-12-23T16:56:20.509Z,100.00
2018-12-23T16:59:23.986Z,100.00
2018-12-23T17:02:27.660Z,100.00
2018-12-23T17:05:31.251Z,100.00
2018-12-23T17:08:34.917Z,100.00
2018-12-23T17:11:38.390Z,100.00
2018-12-23T17:14:41.912Z,100.00
2018-12-23T17:17:45.400Z,100.00
2018-12-23T17:20:48.971Z,100.00
2018-12-23T17:23:52.521Z,100.00
2018-12-23T17:26:55.916Z,100.00
2018-12-23T17:29:59.468Z,100.00
2018-12-23T17:33:02.933Z,100.00
2018-12-23T17:36:06.435Z,100.00
2018-12-23T17:39:09.885Z,100.00
2018-12-23T17:42:13.345Z,100.00
2018-12-23T17:45:16.750Z,100.00
2018-12-23T17:48:20.186Z,100.00
2018-12-23T17:51:23.726Z,100.00
2018-12-23T17:54:27.236Z,100.00
2018-12-23T17:57:30.662Z,100.00
2018-12-23T18:00:34.205Z,100.00
2018-12-23T18:03:37.762Z,100.00
2018-12-23T18:06:41.273Z,100.00
2018-12-23T18:09:44.768Z,100.00
2018-12-23T18:12:48.257Z,100.00
2018-12-23T18:15:51.840Z,100.00
2018-12-23T18:18:55.182Z,100.00
2018-12-23T18:21:58.658Z,100.00
2018-12-23T18:25:02.320Z,100.00
2018-12-23T18:28:07.455Z,100.00
2018-12-23T18:31:11.880Z,100.00
2018-12-23T18:34:16.363Z,100.00
2018-12-23T18:37:19.786Z,100.00
2018-12-23T18:40:23.173Z,100.00
2018-12-23T18:43:26.563Z,100.00
2018-12-23T18:46:30.072Z,100.00
2018-12-23T18:49:33.555Z,100.00
2018-12-23T18:52:37.141Z,100.00
2018-12-23T18:55:40.583Z,100.00
2018-12-23T18:58:44.459Z,100.00
2018-12-23T19:01:56.429Z,100.00
2018-12-23T19:04:59.924Z,100.00
2018-12-23T19:08:08.219Z,100.00
2018-12-23T19:11:23.973Z,100.00
2018-12-23T19:14:37.516Z,100.00
2018-12-23T19:18:21.135Z,100.00
2018-12-23T19:21:37.403Z,100.00
2018-12-23T19:24:57.100Z,100.00
2018-12-23T19:30:29.000Z,100.00
2018-12-23T19:33:54.230Z,100.00
2018-12-23T19:37:07.656Z,100.00
2018-12-23T19:43:00.016Z,100.00
2018-12-23T19:46:19.324Z,100.00
2018-12-23T19:49:35.102Z,100.00
2018-12-23T19:52:50.496Z,100.00
2018-12-23T19:56:08.979Z,100.00
2018-12-23T20:00:39.219Z,100.00
2018-12-23T20:03:57.321Z,100.00
2018-12-23T20:09:15.238Z,100.00
2018-12-23T20:12:44.732Z,100.00
2018-12-23T20:16:00.991Z,100.00
2018-12-23T20:19:15.844Z,100.00
2018-12-23T20:22:44.700Z,100.00
2018-12-23T20:25:57.804Z,100.00
2018-12-23T20:31:24.700Z,100.00
2018-12-23T20:36:52.190Z,100.00
2018-12-23T20:42:13.921Z,100.00
2018-12-23T20:46:28.304Z,100.00
2018-12-23T20:50:11.315Z,100.00
2018-12-23T20:55:31.308Z,100.00
2018-12-23T20:58:46.172Z,100.00
2018-12-23T21:02:00.659Z,100.00
2018-12-23T21:05:14.913Z,100.00
2018-12-23T21:08:34.083Z,100.00
2018-12-23T21:12:57.315Z,100.00
2018-12-23T21:16:23.690Z,100.00
2018-12-23T21:20:28.681Z,100.00
2018-12-23T21:27:55.526Z,100.00
2018-12-23T21:32:08.862Z,100.00
2018-12-23T21:35:27.200Z,100.00
2018-12-23T21:38:44.632Z,100.00
2018-12-23T21:42:03.203Z,100.00
2018-12-23T21:45:17.885Z,100.00
2018-12-23T21:48:32.831Z,100.00
2018-12-23T21:52:08.481Z,100.00
2018-12-23T21:55:25.867Z,100.00
2018-12-23T21:58:41.234Z,100.00
2018-12-23T22:01:56.098Z,100.00
2018-12-23T22:05:40.887Z,100.00
2018-12-23T22:08:57.043Z,100.00
2018-12-23T22:14:10.036Z,100.00
2018-12-23T22:17:13.645Z,100.00
2018-12-23T22:20:17.600Z,100.00
2018-12-23T22:23:21.389Z,100.00
2018-12-23T22:26:25.096Z,100.00
2018-12-23T22:29:28.652Z,100.00
2018-12-23T22:32:32.305Z,100.00
2018-12-23T22:35:35.844Z,100.00
2018-12-23T22:38:39.347Z,100.00
2018-12-23T22:41:42.753Z,100.00
2018-12-23T22:44:46.347Z,100.00
2018-12-23T22:47:49.756Z,100.00
2018-12-23T22:50:53.239Z,100.00
2018-12-23T22:53:56.785Z,100.00
2018-12-23T22:57:00.253Z,100.00
2018-12-23T23:00:03.774Z,100.00
2018-12-23T23:03:09.222Z,100.00
2018-12-23T23:06:10.705Z,100.00
2018-12-23T23:09:14.346Z,100.00
2018-12-23T23:12:17.816Z,100.00
2018-12-23T23:15:21.275Z,100.00
2018-12-23T23:18:24.792Z,100.00
2018-12-23T23:21:28.171Z,100.00
2018-12-23T23:24:31.677Z,100.00
2018-12-23T23:27:35.061Z,100.00
2018-12-23T23:30:38.683Z,100.00
2018-12-23T23:33:42.127Z,100.00
2018-12-23T23:36:45.574Z,100.00
2018-12-23T23:39:49.081Z,100.00
2018-12-23T23:42:52.489Z,100.00
2018-12-23T23:45:57.014Z,100.00
2018-12-23T23:49:00.580Z,100.00
2018-12-23T23:52:04.042Z,100.00
2018-12-23T23:55:07.498Z,100.00
2018-12-23T23:58:11.050Z,100.00
